createdAt,value
2023-04-01T00:01:21.009Z,98319.88
2023-04-01T00:03:48.469Z,98324.22
2023-04-01T00:06:18.001Z,98316.44
2023-04-01T00:08:45.818Z,98323.69
2023-04-01T00:11:13.474Z,98325.88
2023-04-01T00:13:40.847Z,98327.66
2023-04-01T00:16:19.880Z,98322.22
2023-04-01T00:18:48.583Z,98327.94
2023-04-01T00:21:16.214Z,98330.91
2023-04-01T00:23:43.437Z,98339.66
2023-04-01T00:26:10.603Z,98341.34
2023-04-01T00:28:37.558Z,98342.41
2023-04-01T00:31:10.899Z,98340.97
2023-04-01T00:33:39.013Z,98342.19
2023-04-01T00:36:14.220Z,98362.91
2023-04-01T00:38:43.451Z,98364.38
2023-04-01T00:41:15.483Z,98363.66
2023-04-01T00:43:48.951Z,98364.53
2023-04-01T00:46:16.682Z,98363.84
2023-04-01T00:48:49.465Z,98369.94
2023-04-01T00:51:24.700Z,98358.47
2023-04-01T00:53:54.962Z,98377.69
2023-04-01T00:56:33.453Z,98370.72
2023-04-01T00:59:06.906Z,98382.31
2023-04-01T01:01:34.782Z,98383.06
2023-04-01T01:04:03.734Z,98376.28
2023-04-01T01:06:33.537Z,98378.28
2023-04-01T01:09:22.192Z,98391.78
2023-04-01T01:12:17.243Z,98390.25
2023-04-01T01:14:56.033Z,98391.75
2023-04-01T01:17:41.148Z,98401.69
2023-04-01T01:20:34.876Z,98390.63
2023-04-01T01:23:23.311Z,98397.91
2023-04-01T01:26:23.510Z,98408.25
2023-04-01T01:29:18.213Z,98401.03
2023-04-01T01:32:07.367Z,98398.63
2023-04-01T01:35:12.252Z,98412.44
2023-04-01T01:37:44.360Z,98408.91
2023-04-01T01:40:12.951Z,98421.88
2023-04-01T01:42:45.615Z,98428.28
2023-04-01T01:45:18.927Z,98425.41
2023-04-01T01:47:47.530Z,98429.38
2023-04-01T01:50:16.734Z,98434.38
2023-04-01T01:52:43.446Z,98424.72
2023-04-01T01:55:34.291Z,98436.97
2023-04-01T01:58:10.266Z,98438.97
2023-04-01T02:00:37.769Z,98442.09
2023-04-01T02:03:06.240Z,98455.59
2023-04-01T02:05:33.892Z,98465.28
2023-04-01T02:08:07.625Z,98462.56
2023-04-01T02:10:38.419Z,98466.81
2023-04-01T02:13:14.037Z,98469.81
2023-04-01T02:15:45.959Z,98470.34
2023-04-01T02:18:14.354Z,98476.34
2023-04-01T02:20:42.696Z,98479.59
2023-04-01T02:23:11.512Z,98488.16
2023-04-01T02:25:39.585Z,98493.13
2023-04-01T02:28:08.876Z,98494.13
2023-04-01T02:30:39.047Z,98496.81
2023-04-01T02:33:07.179Z,98505.44
2023-04-01T02:35:40.385Z,98517.78
2023-04-01T02:38:08.884Z,98526.59
2023-04-01T02:40:49.605Z,98541.06
2023-04-01T02:43:17.384Z,98543.78
2023-04-01T02:45:46.396Z,98550.13
2023-04-01T02:48:15.259Z,98562.06
2023-04-01T02:50:42.128Z,98556.94
2023-04-01T02:53:09.307Z,98566.88
2023-04-01T02:55:36.586Z,98582.44
2023-04-01T02:58:04.445Z,98586.00
2023-04-01T03:00:38.413Z,98583.09
2023-04-01T03:03:05.361Z,98589.47
2023-04-01T03:05:32.542Z,98586.94
2023-04-01T03:07:59.553Z,98597.72
2023-04-01T03:10:26.410Z,98608.78
2023-04-01T03:12:53.461Z,98600.41
2023-04-01T03:15:20.720Z,98601.53
2023-04-01T03:17:47.954Z,98618.22
2023-04-01T03:20:16.074Z,98619.19
2023-04-01T03:22:43.240Z,98628.81
2023-04-01T03:25:12.566Z,98634.63
2023-04-01T03:27:39.382Z,98639.56
2023-04-01T03:30:07.429Z,98646.94
2023-04-01T03:32:34.681Z,98658.47
2023-04-01T03:35:01.669Z,98660.66
2023-04-01T03:37:29.182Z,98673.19
2023-04-01T03:40:01.004Z,98664.19
2023-04-01T03:42:29.349Z,98672.44
2023-04-01T03:44:56.392Z,98692.31
2023-04-01T03:47:23.572Z,98686.81
2023-04-01T03:49:50.497Z,98687.19
2023-04-01T03:52:18.072Z,98701.09
2023-04-01T03:54:45.312Z,98712.41
2023-04-01T03:57:12.154Z,98709.69
2023-04-01T03:59:39.114Z,98728.28
2023-04-01T04:02:06.459Z,98716.31
2023-04-01T04:04:33.333Z,98735.28
2023-04-01T04:07:01.292Z,98741.28
2023-04-01T04:09:28.531Z,98740.31
2023-04-01T04:11:55.658Z,98741.28
2023-04-01T04:14:23.654Z,98756.38
2023-04-01T04:16:50.764Z,98754.13
2023-04-01T04:19:17.882Z,98735.66
2023-04-01T04:21:44.682Z,98768.84
2023-04-01T04:24:11.463Z,98775.47
2023-04-01T04:26:38.948Z,98770.13
2023-04-01T04:29:05.967Z,98771.06
2023-04-01T04:31:32.790Z,98778.66
2023-04-01T04:34:02.203Z,98782.84
2023-04-01T04:36:29.956Z,98793.00
2023-04-01T04:39:03.011Z,98796.41
2023-04-01T04:41:50.282Z,98796.91
2023-04-01T04:44:24.116Z,98807.81
2023-04-01T04:46:51.361Z,98805.84
2023-04-01T04:49:20.754Z,98825.28
2023-04-01T04:51:51.397Z,98823.31
2023-04-01T04:54:31.068Z,98860.38
2023-04-01T04:57:10.626Z,98837.28
2023-04-01T04:59:46.125Z,98832.88
2023-04-01T05:02:13.518Z,98834.09
2023-04-01T05:04:42.549Z,98826.03
2023-04-01T05:07:11.028Z,98843.63
2023-04-01T05:09:41.389Z,98849.63
2023-04-01T05:12:11.897Z,98864.31
2023-04-01T05:14:39.103Z,98856.38
2023-04-01T05:17:11.679Z,98865.03
2023-04-01T05:19:39.353Z,98863.69
2023-04-01T05:22:07.574Z,98863.06
2023-04-01T05:24:34.574Z,98864.56
2023-04-01T05:27:08.409Z,98837.06
2023-04-01T05:29:36.065Z,98866.00
2023-04-01T05:32:04.418Z,98884.38
2023-04-01T05:34:31.556Z,98880.34
2023-04-01T05:37:04.277Z,98887.31
2023-04-01T05:39:43.551Z,98893.91
2023-04-01T05:42:10.707Z,98890.88
2023-04-01T05:44:37.677Z,98890.72
2023-04-01T05:47:05.750Z,98890.88
2023-04-01T05:49:34.045Z,98890.50
2023-04-01T05:52:00.985Z,98901.25
2023-04-01T05:54:28.342Z,98898.69
2023-04-01T05:56:55.647Z,98909.56
2023-04-01T05:59:22.575Z,98915.81
2023-04-01T06:01:49.634Z,98921.06
2023-04-01T06:04:18.810Z,98915.81
2023-04-01T06:06:46.169Z,98939.41
2023-04-01T06:09:33.047Z,98924.72
2023-04-01T06:12:08.924Z,98930.75
2023-04-01T06:14:54.610Z,98934.41
2023-04-01T06:17:42.675Z,98943.69
2023-04-01T06:20:26.017Z,98944.78
2023-04-01T06:23:28.681Z,98950.06
2023-04-01T06:26:17.111Z,98955.44
2023-04-01T06:29:28.988Z,98962.38
2023-04-01T06:31:58.803Z,98964.47
2023-04-01T06:34:38.312Z,98963.84
2023-04-01T06:37:28.001Z,98964.34
2023-04-01T06:40:19.662Z,98971.44
2023-04-01T06:43:27.130Z,98996.28
2023-04-01T06:46:08.153Z,98992.84
2023-04-01T06:48:57.759Z,98985.75
2023-04-01T06:51:27.466Z,98976.81
2023-04-01T06:54:06.424Z,98993.34
2023-04-01T06:56:35.463Z,99003.47
2023-04-01T06:59:23.646Z,99009.47
2023-04-01T07:02:00.793Z,99003.13
2023-04-01T07:04:32.663Z,99015.47
2023-04-01T07:07:07.540Z,99001.41
2023-04-01T07:09:39.796Z,99020.50
2023-04-01T07:12:16.475Z,99019.03
2023-04-01T07:14:45.583Z,99031.84
2023-04-01T07:17:17.838Z,99034.44
2023-04-01T07:19:57.774Z,99023.03
2023-04-01T07:22:41.802Z,99033.47
2023-04-01T07:25:22.828Z,99042.75
2023-04-01T07:27:51.250Z,99048.38
2023-04-01T07:30:21.857Z,99042.50
2023-04-01T07:33:13.857Z,99059.13
2023-04-01T07:35:58.271Z,99048.47
2023-04-01T07:38:54.325Z,99067.47
2023-04-01T07:41:32.002Z,99070.63
2023-04-01T07:44:21.885Z,99061.09
2023-04-01T07:47:16.259Z,99093.63
2023-04-01T07:50:13.992Z,99096.31
2023-04-01T07:53:15.001Z,99098.28
2023-04-01T07:56:00.945Z,99100.84
2023-04-01T07:58:33.542Z,99115.91
2023-04-01T08:01:00.221Z,99110.50
2023-04-01T08:03:57.168Z,99136.53
2023-04-01T08:06:46.990Z,99141.66
2023-04-01T08:09:28.133Z,99129.31
2023-04-01T08:12:16.816Z,99143.00
2023-04-01T08:14:57.769Z,99149.13
2023-04-01T08:17:31.891Z,99149.13
2023-04-01T08:20:18.713Z,99155.25
2023-04-01T08:23:05.022Z,99165.38
2023-04-01T08:25:35.349Z,99176.25
2023-04-01T08:28:12.177Z,99182.25
2023-04-01T08:30:52.578Z,99194.44
2023-04-01T08:33:30.854Z,99199.56
2023-04-01T08:36:16.749Z,99191.69
2023-04-01T08:38:46.035Z,99178.50
2023-04-01T08:42:05.516Z,99211.78
2023-04-01T08:45:09.618Z,99215.34
2023-04-01T08:48:10.578Z,99232.22
2023-04-01T08:50:37.172Z,99237.47
2023-04-01T08:53:16.817Z,99231.47
2023-04-01T08:56:07.574Z,99232.03
2023-04-01T08:59:11.717Z,99227.84
2023-04-01T09:01:44.253Z,99257.69
2023-04-01T09:04:32.353Z,99241.03
2023-04-01T09:07:29.209Z,99250.53
2023-04-01T09:10:23.685Z,99274.72
2023-04-01T09:13:00.934Z,99271.81
2023-04-01T09:15:55.038Z,99269.22
2023-04-01T09:18:55.339Z,99283.53
2023-04-01T09:21:44.108Z,99282.47
2023-04-01T09:24:16.828Z,99291.75
2023-04-01T09:26:50.858Z,99290.31
2023-04-01T09:29:29.639Z,99296.81
2023-04-01T09:32:24.160Z,99307.34
2023-04-01T09:35:09.569Z,99316.81
2023-04-01T09:37:42.561Z,99342.75
2023-04-01T09:40:19.467Z,99316.97
2023-04-01T09:43:18.454Z,99333.19
2023-04-01T09:45:58.494Z,99341.34
2023-04-01T09:49:08.021Z,99348.69
2023-04-01T09:52:13.152Z,99347.38
2023-04-01T09:54:52.117Z,99343.19
2023-04-01T09:57:46.709Z,99350.72
2023-04-01T10:00:44.277Z,99377.28
2023-04-01T10:03:46.438Z,99358.78
2023-04-01T10:06:32.017Z,99363.28
2023-04-01T10:09:04.654Z,99367.72
2023-04-01T10:12:08.194Z,99375.00
2023-04-01T10:14:34.754Z,99385.13
2023-04-01T10:17:07.443Z,99379.53
2023-04-01T10:19:49.384Z,99397.59
2023-04-01T10:22:54.065Z,99404.69
2023-04-01T10:25:55.015Z,99396.34
2023-04-01T10:28:34.286Z,99397.38
2023-04-01T10:31:28.001Z,99407.94
2023-04-01T10:34:19.709Z,99395.66
2023-04-01T10:36:52.821Z,99418.47
2023-04-01T10:39:35.890Z,99439.22
2023-04-01T10:42:22.436Z,99444.47
2023-04-01T10:45:18.978Z,99441.47
2023-04-01T10:48:06.154Z,99435.44
2023-04-01T10:50:57.306Z,99449.09
2023-04-01T10:54:05.348Z,99457.69
2023-04-01T10:56:43.425Z,99464.34
2023-04-01T10:59:12.950Z,99456.72
2023-04-01T11:02:03.926Z,99484.97
2023-04-01T11:05:02.061Z,99494.53
2023-04-01T11:07:43.989Z,99513.50
2023-04-01T11:10:19.105Z,99506.97
2023-04-01T11:12:51.680Z,99508.06
2023-04-01T11:15:55.463Z,99497.75
2023-04-01T11:18:50.264Z,99519.78
2023-04-01T11:22:11.591Z,99519.69
2023-04-01T11:25:11.505Z,99532.56
2023-04-01T11:28:11.173Z,99538.38
2023-04-01T11:30:47.000Z,99551.47
2023-04-01T11:33:54.311Z,99546.22
2023-04-01T11:36:36.209Z,99557.19
2023-04-01T11:39:12.052Z,99564.19
2023-04-01T11:41:53.495Z,99570.31
2023-04-01T11:44:29.750Z,99577.31
2023-04-01T11:47:17.844Z,99581.63
2023-04-01T11:50:12.006Z,99582.88
2023-04-01T11:53:00.957Z,99554.00
2023-04-01T11:55:45.855Z,99609.25
2023-04-01T11:58:32.327Z,99617.59
2023-04-01T12:01:05.467Z,99632.44
2023-04-01T12:03:53.066Z,99644.91
2023-04-01T12:06:37.229Z,99641.66
2023-04-01T12:09:35.853Z,99651.72
2023-04-01T12:12:30.466Z,99657.66
2023-04-01T12:15:24.714Z,99686.53
2023-04-01T12:18:17.522Z,99695.44
2023-04-01T12:20:52.528Z,99711.25
2023-04-01T12:23:49.332Z,99722.06
2023-04-01T12:26:36.967Z,99736.19
2023-04-01T12:29:37.634Z,99763.50
2023-04-01T12:32:32.282Z,99796.47
2023-04-01T12:35:08.269Z,99810.09
2023-04-01T12:37:40.050Z,99814.50
2023-04-01T12:40:22.052Z,99828.16
2023-04-01T12:43:06.612Z,99850.06
2023-04-01T12:45:40.264Z,99851.59
2023-04-01T12:48:43.960Z,99864.25
2023-04-01T12:51:15.708Z,99883.94
2023-04-01T12:54:19.499Z,99909.09
2023-04-01T12:57:04.657Z,99920.16
2023-04-01T12:59:53.428Z,99944.25
2023-04-01T13:02:20.092Z,99961.94
2023-04-01T13:05:04.499Z,99979.13
2023-04-01T13:07:49.858Z,99991.34
2023-04-01T13:10:25.705Z,99997.13
2023-04-01T13:13:01.597Z,100012.09
2023-04-01T13:15:46.400Z,100024.78
2023-04-01T13:19:01.342Z,100049.56
2023-04-01T13:22:05.772Z,100065.47
2023-04-01T13:24:41.072Z,100098.41
2023-04-01T13:27:16.004Z,100115.13
2023-04-01T13:29:48.820Z,100134.63
2023-04-01T13:32:46.518Z,100129.59
2023-04-01T13:35:58.132Z,100158.41
2023-04-01T13:38:56.410Z,100179.66
2023-04-01T13:41:56.854Z,100193.13
2023-04-01T13:44:34.052Z,100218.63
2023-04-01T13:47:19.293Z,100238.66
2023-04-01T13:50:17.032Z,100251.75
2023-04-01T13:53:17.488Z,100267.28
2023-04-01T13:56:08.882Z,100278.50
2023-04-01T13:58:58.672Z,100299.28
2023-04-01T14:01:34.489Z,100295.09
2023-04-01T14:04:19.982Z,100330.31
2023-04-01T14:06:52.730Z,100336.75
2023-04-01T14:09:31.462Z,100333.91
2023-04-01T14:12:05.426Z,100348.88
2023-04-01T14:15:02.441Z,100416.63
2023-04-01T14:17:53.984Z,100442.75
2023-04-01T14:20:31.252Z,100446.84
2023-04-01T14:23:00.997Z,100452.53
2023-04-01T14:25:46.291Z,100478.13
2023-04-01T14:28:36.591Z,100490.94
2023-04-01T14:31:35.550Z,100503.63
2023-04-01T14:34:11.339Z,100514.94
2023-04-01T14:36:53.111Z,100529.66
2023-04-01T14:39:41.422Z,100546.00
2023-04-01T14:42:29.442Z,100550.91
2023-04-01T14:44:59.011Z,100554.84
2023-04-01T14:48:06.518Z,100566.94
2023-04-01T14:50:46.096Z,100613.53
2023-04-01T14:53:25.582Z,100622.38
2023-04-01T14:55:56.500Z,100628.34
2023-04-01T14:58:41.882Z,100649.91
2023-04-01T15:01:23.491Z,100667.72
2023-04-01T15:04:19.888Z,100676.72
2023-04-01T15:07:20.801Z,100688.13
2023-04-01T15:09:56.633Z,100699.88
2023-04-01T15:12:58.462Z,100719.31
2023-04-01T15:15:58.969Z,100726.41
2023-04-01T15:18:38.286Z,100744.03
2023-04-01T15:21:13.398Z,100744.84
2023-04-01T15:23:49.417Z,100771.63
2023-04-01T15:26:27.914Z,100781.50
2023-04-01T15:29:40.815Z,100802.84
2023-04-01T15:32:39.891Z,100799.59
2023-04-01T15:35:28.360Z,100802.06
2023-04-01T15:38:06.627Z,100815.66
2023-04-01T15:41:09.867Z,100820.16
2023-04-01T15:43:50.567Z,100841.28
2023-04-01T15:46:49.611Z,100839.06
2023-04-01T15:49:46.276Z,100843.25
2023-04-01T15:52:22.837Z,100869.59
2023-04-01T15:55:11.517Z,100853.50
2023-04-01T15:58:26.534Z,100871.22
2023-04-01T16:01:23.475Z,100854.97
2023-04-01T16:04:07.992Z,100889.69
2023-04-01T16:06:51.091Z,100892.97
2023-04-01T16:09:21.070Z,100905.38
2023-04-01T16:12:09.267Z,100921.25
2023-04-01T16:14:57.779Z,100923.66
2023-04-01T16:17:49.906Z,100944.66
2023-04-01T16:20:21.810Z,100948.09
2023-04-01T16:22:54.632Z,100947.78
2023-04-01T16:25:30.156Z,100983.28
2023-04-01T16:28:20.562Z,100962.88
2023-04-01T16:30:49.640Z,100973.75
2023-04-01T16:33:26.034Z,100973.00
2023-04-01T16:36:06.918Z,100983.75
2023-04-01T16:38:41.784Z,100994.22
2023-04-01T16:41:08.406Z,101011.16
2023-04-01T16:43:58.881Z,101010.44
2023-04-01T16:46:37.285Z,101009.31
2023-04-01T16:49:13.184Z,101019.81
2023-04-01T16:51:52.112Z,101031.63
2023-04-01T16:54:21.871Z,101037.38
2023-04-01T16:56:56.421Z,101050.63
2023-04-01T16:59:31.043Z,101061.00
2023-04-01T17:02:26.884Z,101062.25
2023-04-01T17:05:02.776Z,101058.69
2023-04-01T17:07:41.637Z,101068.38
2023-04-01T17:10:36.894Z,101077.44
2023-04-01T17:13:32.114Z,101092.63
2023-04-01T17:16:01.776Z,101087.47
2023-04-01T17:19:06.075Z,101115.44
2023-04-01T17:22:12.555Z,101104.22
2023-04-01T17:24:45.537Z,101111.47
2023-04-01T17:27:18.464Z,101125.34
2023-04-01T17:30:13.133Z,101128.72
2023-04-01T17:32:52.074Z,101141.59
2023-04-01T17:35:50.158Z,101151.31
2023-04-01T17:38:54.537Z,101156.75
2023-04-01T17:41:39.654Z,101166.81
2023-04-01T17:44:36.232Z,101163.56
2023-04-01T17:47:26.890Z,101181.59
2023-04-01T17:50:09.174Z,101170.28
2023-04-01T17:52:43.363Z,101180.16
2023-04-01T17:55:32.527Z,101189.97
2023-04-01T17:58:43.245Z,101195.72
2023-04-01T18:01:28.327Z,101199.22
2023-04-01T18:04:06.104Z,101209.44
2023-04-01T18:07:01.105Z,101208.50
2023-04-01T18:09:31.237Z,101221.91
2023-04-01T18:12:19.183Z,101225.88
2023-04-01T18:15:04.193Z,101256.00
2023-04-01T18:18:00.768Z,101249.44
2023-04-01T18:20:38.675Z,101267.97
2023-04-01T18:23:31.363Z,101275.44
2023-04-01T18:26:14.101Z,101289.44
2023-04-01T18:28:50.689Z,101293.38
2023-04-01T18:31:24.157Z,101301.44
2023-04-01T18:33:53.856Z,101306.00
2023-04-01T18:36:27.748Z,101310.56
2023-04-01T18:38:58.317Z,101318.13
2023-04-01T18:41:35.750Z,101332.94
2023-04-01T18:44:29.851Z,101332.25
2023-04-01T18:47:09.236Z,101343.78
2023-04-01T18:49:49.138Z,101338.50
2023-04-01T18:52:34.083Z,101351.25
2023-04-01T18:55:03.782Z,101367.44
2023-04-01T18:57:55.705Z,101374.22
2023-04-01T19:00:23.648Z,101374.38
2023-04-01T19:03:03.392Z,101379.97
2023-04-01T19:05:37.815Z,101386.16
2023-04-01T19:08:32.970Z,101403.75
2023-04-01T19:11:10.145Z,101395.00
2023-04-01T19:13:41.040Z,101401.44
2023-04-01T19:16:44.914Z,101408.31
2023-04-01T19:19:37.290Z,101410.09
2023-04-01T19:22:39.341Z,101416.25
2023-04-01T19:25:38.592Z,101424.53
2023-04-01T19:28:17.482Z,101423.94
2023-04-01T19:30:47.179Z,101435.25
2023-04-01T19:33:53.061Z,101437.13
2023-04-01T19:37:03.210Z,101435.59
2023-04-01T19:39:48.689Z,101452.38
2023-04-01T19:42:32.527Z,101455.88
2023-04-01T19:45:07.832Z,101457.75
2023-04-01T19:47:57.170Z,101465.06
2023-04-01T19:50:48.171Z,101464.97
2023-04-01T19:53:27.026Z,101474.97
2023-04-01T19:56:08.053Z,101471.09
2023-04-01T19:58:44.135Z,101476.56
2023-04-01T20:01:45.213Z,101485.25
2023-04-01T20:04:22.027Z,101478.09
2023-04-01T20:07:23.920Z,101484.69
2023-04-01T20:10:04.341Z,101484.97
2023-04-01T20:12:47.809Z,101499.03
2023-04-01T20:15:40.375Z,101495.69
2023-04-01T20:18:17.119Z,101505.06
2023-04-01T20:20:56.247Z,101506.03
2023-04-01T20:23:46.395Z,101511.34
2023-04-01T20:26:15.195Z,101516.13
2023-04-01T20:28:58.908Z,101520.69
2023-04-01T20:31:32.250Z,101531.84
2023-04-01T20:34:07.385Z,101534.53
2023-04-01T20:37:00.717Z,101527.41
2023-04-01T20:39:58.388Z,101531.88
2023-04-01T20:43:08.801Z,101532.69
2023-04-01T20:45:54.072Z,101528.66
2023-04-01T20:48:53.435Z,101535.59
2023-04-01T20:51:27.514Z,101517.91
2023-04-01T20:54:12.574Z,101534.56
2023-04-01T20:56:57.049Z,101540.63
2023-04-01T20:59:36.306Z,101527.72
2023-04-01T21:02:33.639Z,101525.78
2023-04-01T21:05:20.647Z,101535.34
2023-04-01T21:07:57.804Z,101529.38
2023-04-01T21:10:41.795Z,101549.81
2023-04-01T21:13:18.508Z,101538.38
2023-04-01T21:16:14.553Z,101556.59
2023-04-01T21:19:23.329Z,101572.56
2023-04-01T21:22:16.718Z,101564.72
2023-04-01T21:24:43.317Z,101572.78
2023-04-01T21:27:48.875Z,101579.50
2023-04-01T21:30:41.220Z,101577.22
2023-04-01T21:33:26.601Z,101583.22
2023-04-01T21:36:05.057Z,101595.22
2023-04-01T21:39:02.296Z,101601.09
2023-04-01T21:42:13.891Z,101598.41
2023-04-01T21:45:01.620Z,101603.88
2023-04-01T21:47:41.178Z,101603.09
2023-04-01T21:50:21.004Z,101610.34
2023-04-01T21:53:10.808Z,101615.75
2023-04-01T21:55:59.148Z,101617.53
2023-04-01T21:58:53.063Z,101622.72
2023-04-01T22:01:48.201Z,101628.34
2023-04-01T22:04:17.820Z,101637.41
2023-04-01T22:06:47.421Z,101639.31
2023-04-01T22:09:22.320Z,101650.75
2023-04-01T22:11:55.309Z,101657.03
2023-04-01T22:14:37.139Z,101653.41
2023-04-01T22:17:30.607Z,101659.53
2023-04-01T22:20:16.864Z,101659.59
2023-04-01T22:23:20.459Z,101664.06
2023-04-01T22:25:58.198Z,101672.75
2023-04-01T22:28:39.142Z,101679.22
2023-04-01T22:31:09.076Z,101688.19
2023-04-01T22:34:02.685Z,101686.69
2023-04-01T22:36:44.253Z,101695.72
2023-04-01T22:39:56.399Z,101688.78
2023-04-01T22:42:41.695Z,101696.66
2023-04-01T22:45:08.473Z,101691.38
2023-04-01T22:48:02.314Z,101713.59
2023-04-01T22:50:37.858Z,101704.72
2023-04-01T22:53:42.426Z,101698.78
2023-04-01T22:56:17.890Z,101713.94
2023-04-01T22:58:55.682Z,101709.41
2023-04-01T23:01:28.695Z,101721.41
2023-04-01T23:03:58.913Z,101704.94
2023-04-01T23:06:42.359Z,101720.06
2023-04-01T23:09:29.349Z,101726.84
2023-04-01T23:12:14.194Z,101726.44
2023-04-01T23:14:48.516Z,101729.78
2023-04-01T23:17:21.165Z,101728.34
2023-04-01T23:20:01.063Z,101743.63
2023-04-01T23:22:49.822Z,101754.00
2023-04-01T23:25:22.427Z,101753.69
2023-04-01T23:28:14.559Z,101742.19
2023-04-01T23:30:41.335Z,101749.47
2023-04-01T23:33:20.485Z,101752.34
2023-04-01T23:36:06.393Z,101760.19
2023-04-01T23:38:37.044Z,101767.28
2023-04-01T23:41:05.691Z,101764.22
2023-04-01T23:43:39.442Z,101778.22
2023-04-01T23:46:08.555Z,101768.19
2023-04-01T23:48:39.967Z,101782.28
2023-04-01T23:51:33.787Z,101780.78
2023-04-01T23:54:05.430Z,101784.97
2023-04-01T23:56:39.376Z,101781.75
2023-04-01T23:59:06.458Z,101787.28
